LECO/LCG METAR and TAF weather

Enter ICAO airport designator
Station Type Date Time Source
LECO METAR 2021/03/06 01:00 UTC NOAA

LECO 060100Z AUTO 03004KT 350V060 9999 FEW033 10/07 Q1022


Station Type Date Time Source
LECO Decoded METAR 2021/03/06 01:00 UTC NOAA

La Coruna / Alvedro, Spain (LECO) 43-18N 008-23W 103M
Mar 05, 2021 - 08:00 PM EST / 2021.03.06 0100 UTC
Wind: from the NNE (030 degrees) at 5 MPH (4 KT) (direction variable):0
Visibility: greater than 7 mile(s):0
Sky conditions: mostly clear
Temperature: 50 F (10 C)
Dew Point: 44 F (7 C)
Relative Humidity: 81%
Pressure (altimeter): 30.18 in. Hg (1022 hPa)
ob: LECO 060100Z AUTO 03004KT 350V060 9999 FEW033 10/07 Q1022
cycle: 1

Station Type Date Time Source
LECO TAF 2021/03/05 21:27 UTC NOAA

TAF LECO 052000Z 0521/0621 VRB04KT 9999 FEW030 TX13/0614Z TN06/0607Z PROB40
TEMPO 0602/0609 3000 BR PROB30
TEMPO 0603/0608 1500 BCFG PROB30
TEMPO 0604/0608 0800 BCFG
TEMPO 0610/0619 04012KT

Example: see airport list